Time;durP1;ratioP1;P1;durP2;ratioP2;P2;SDS_P1;SDS_P2;PMS_P1;PMS_P2;Temp;Humidity;BMP_temperature;BMP_pressure;BME280_temperature;BME280_humidity;BME280_pressure;Samples;Min_cycle;Max_cycle;Signal;HPM_P1;HPM_P2
2021/12/23 00:00:36;;;;;;;49.17;26.38;;;;;;;;;;5020026;28;20090;-73
2021/12/23 00:03:02;;;;;;;57.45;28.10;;;;;;;;;;5043165;28;20037;-72
2021/12/23 00:05:28;;;;;;;47.85;25.35;;;;;;;;;;5043422;28;20021;-72
2021/12/23 00:07:54;;;;;;;52.58;26.42;;;;;;;;;;5037001;28;20029;-72
2021/12/23 00:10:20;;;;;;;54.63;29.88;;;;;;;;;;5047367;28;20036;-73
2021/12/23 00:12:46;;;;;;;56.92;27.63;;;;;;;;;;5036877;28;20021;-71
2021/12/23 00:15:50;;;;;;;56.03;27.58;;;;;;;;;;5044306;28;20025;-73
2021/12/23 00:18:42;;;;;;;50.28;24.17;;;;;;;;;;5052735;28;20115;-72
2021/12/23 00:23:48;;;;;;;50.70;24.15;;;;;;;;;;5042673;28;20039;-72
2021/12/23 00:26:14;;;;;;;49.25;25.42;;;;;;;;;;5054269;28;20036;-73
2021/12/23 00:28:40;;;;;;;49.90;23.30;;;;;;;;;;5043137;28;20025;-73
2021/12/23 00:31:06;;;;;;;51.45;25.08;;;;;;;;;;5046269;28;20037;-72
2021/12/23 00:33:35;;;;;;;52.40;24.83;;;;;;;;;;5046879;28;20044;-73
2021/12/23 00:36:01;;;;;;;51.60;25.08;;;;;;;;;;5036752;28;20030;-73
2021/12/23 00:38:31;;;;;;;49.72;25.52;;;;;;;;;;5048196;28;20025;-73
2021/12/23 00:41:02;;;;;;;47.50;25.38;;;;;;;;;;5038321;28;20483;-73
2021/12/23 00:43:28;;;;;;;49.83;23.65;;;;;;;;;;5039204;28;20068;-73
2021/12/23 00:45:54;;;;;;;47.83;23.98;;;;;;;;;;5047697;28;20029;-73
2021/12/23 00:48:20;;;;;;;43.63;23.70;;;;;;;;;;5037244;28;20044;-71
2021/12/23 00:50:47;;;;;;;44.30;23.80;;;;;;;;;;5047599;28;20108;-73
2021/12/23 00:53:17;;;;;;;49.33;24.17;;;;;;;;;;5041464;28;20029;-72
2021/12/23 00:55:43;;;;;;;45.28;23.63;;;;;;;;;;5039024;28;20032;-71
2021/12/23 00:58:09;;;;;;;41.38;21.73;;;;;;;;;;5045574;28;20521;-72
2021/12/23 01:00:35;;;;;;;46.28;22.75;;;;;;;;;;5036425;28;20114;-72
2021/12/23 01:03:03;;;;;;;44.72;24.52;;;;;;;;;;5044166;28;20124;-71
2021/12/23 01:05:30;;;;;;;47.00;23.88;;;;;;;;;;5041793;28;20021;-72
2021/12/23 01:07:56;;;;;;;45.60;23.23;;;;;;;;;;5037449;28;20033;-72
2021/12/23 01:10:24;;;;;;;48.50;23.67;;;;;;;;;;5051441;28;20025;-71
2021/12/23 01:12:55;;;;;;;40.05;21.40;;;;;;;;;;5040237;28;20051;-72
2021/12/23 01:17:59;;;;;;;39.58;21.08;;;;;;;;;;5034891;28;20030;-71
2021/12/23 01:20:30;;;;;;;39.78;20.38;;;;;;;;;;5050937;28;20111;-71
2021/12/23 01:22:58;;;;;;;39.65;20.58;;;;;;;;;;5039524;28;20437;-71
2021/12/23 01:25:24;;;;;;;44.80;20.23;;;;;;;;;;5042392;28;20436;-71
2021/12/23 01:27:50;;;;;;;38.35;20.33;;;;;;;;;;5048154;28;20465;-72
2021/12/23 01:30:19;;;;;;;37.75;19.27;;;;;;;;;;5037729;28;20112;-71
2021/12/23 01:32:46;;;;;;;42.65;20.08;;;;;;;;;;5036897;28;20060;-68
2021/12/23 01:35:12;;;;;;;32.25;17.83;;;;;;;;;;5044858;28;20028;-72
2021/12/23 01:37:38;;;;;;;35.28;19.30;;;;;;;;;;5045657;28;20116;-72
2021/12/23 01:40:05;;;;;;;34.60;18.92;;;;;;;;;;5037776;28;20105;-71
2021/12/23 01:42:31;;;;;;;40.05;19.73;;;;;;;;;;5028911;28;20028;-71
2021/12/23 01:44:57;;;;;;;36.47;18.98;;;;;;;;;;5046158;28;20562;-72
2021/12/23 01:47:23;;;;;;;39.88;19.13;;;;;;;;;;5043465;28;20061;-72
2021/12/23 01:49:50;;;;;;;39.63;19.38;;;;;;;;;;5039651;28;20017;-72
2021/12/23 01:52:16;;;;;;;39.03;19.60;;;;;;;;;;5050646;28;20090;-72
2021/12/23 01:54:42;;;;;;;38.15;20.17;;;;;;;;;;5038544;28;20638;-70
2021/12/23 01:57:09;;;;;;;39.25;20.58;;;;;;;;;;5045101;28;20029;-71
2021/12/23 01:59:35;;;;;;;39.95;20.70;;;;;;;;;;5046395;28;20108;-71
2021/12/23 02:02:01;;;;;;;43.78;19.58;;;;;;;;;;5038071;28;20119;-71
2021/12/23 02:04:27;;;;;;;42.75;20.42;;;;;;;;;;5049655;28;20475;-71
2021/12/23 02:06:53;;;;;;;41.58;20.05;;;;;;;;;;5028923;28;20430;-71
2021/12/23 02:09:19;;;;;;;38.80;19.50;;;;;;;;;;5032936;28;20025;-71
2021/12/23 02:11:45;;;;;;;39.55;21.80;;;;;;;;;;5040040;28;20032;-71
2021/12/23 02:14:11;;;;;;;41.88;21.77;;;;;;;;;;5050090;28;20040;-71
2021/12/23 02:16:37;;;;;;;43.60;20.92;;;;;;;;;;5037623;28;20418;-72
2021/12/23 02:19:18;;;;;;;42.95;22.27;;;;;;;;;;5045223;28;20580;-73
2021/12/23 02:21:44;;;;;;;32.30;15.70;;;;;;;;;;5047031;28;20025;-73
2021/12/23 02:24:10;;;;;;;47.28;22.65;;;;;;;;;;5036673;28;20025;-72
2021/12/23 02:26:40;;;;;;;41.83;20.45;;;;;;;;;;5049320;28;20025;-72
2021/12/23 02:29:06;;;;;;;46.85;22.88;;;;;;;;;;5041708;28;20090;-72
2021/12/23 02:31:32;;;;;;;47.72;23.77;;;;;;;;;;5041750;28;20117;-72
2021/12/23 02:33:58;;;;;;;46.25;22.30;;;;;;;;;;5048206;28;20025;-72
2021/12/23 02:36:26;;;;;;;49.33;22.60;;;;;;;;;;5036740;28;20483;-72
2021/12/23 02:38:52;;;;;;;43.53;22.00;;;;;;;;;;5046612;28;20032;-72
2021/12/23 02:41:18;;;;;;;43.15;22.02;;;;;;;;;;5042849;28;20032;-72
2021/12/23 02:43:44;;;;;;;41.17;21.52;;;;;;;;;;5037168;28;20044;-71
2021/12/23 02:46:10;;;;;;;43.47;22.98;;;;;;;;;;5048066;28;20075;-72
2021/12/23 02:48:37;;;;;;;43.47;22.30;;;;;;;;;;5035862;28;20032;-72
2021/12/23 02:51:07;;;;;;;47.63;22.55;;;;;;;;;;5044723;28;20044;-71
2021/12/23 02:53:33;;;;;;;40.25;22.23;;;;;;;;;;5043045;28;20130;-71
2021/12/23 02:56:00;;;;;;;46.33;22.13;;;;;;;;;;5037037;28;20030;-72
2021/12/23 02:58:26;;;;;;;40.00;21.63;;;;;;;;;;5049040;28;20029;-72
2021/12/23 03:00:56;;;;;;;42.92;22.58;;;;;;;;;;5038896;28;20032;-71
2021/12/23 03:03:22;;;;;;;44.47;22.98;;;;;;;;;;5041424;28;20052;-71
2021/12/23 03:05:52;;;;;;;44.15;21.65;;;;;;;;;;5046848;28;20058;-71
2021/12/23 03:08:37;;;;;;;39.70;20.88;;;;;;;;;;5035982;28;20056;-71
2021/12/23 03:11:04;;;;;;;49.63;23.50;;;;;;;;;;5044388;28;20037;-71
2021/12/23 03:13:31;;;;;;;49.83;22.98;;;;;;;;;;5042343;28;20055;-71
2021/12/23 03:15:57;;;;;;;42.15;21.30;;;;;;;;;;5036988;28;20369;-71
2021/12/23 03:18:25;;;;;;;44.97;23.10;;;;;;;;;;5048779;28;20399;-72
2021/12/23 03:20:51;;;;;;;46.40;23.48;;;;;;;;;;5038461;28;20367;-72
2021/12/23 03:23:17;;;;;;;45.10;22.52;;;;;;;;;;5041486;28;20105;-72
2021/12/23 03:25:43;;;;;;;42.17;22.50;;;;;;;;;;5045890;28;20029;-73
2021/12/23 03:28:09;;;;;;;49.80;23.85;;;;;;;;;;5036025;28;20060;-73
2021/12/23 03:30:35;;;;;;;45.92;24.17;;;;;;;;;;5047603;28;20056;-72
2021/12/23 03:33:01;;;;;;;40.38;21.90;;;;;;;;;;5039800;28;20513;-71
2021/12/23 03:35:27;;;;;;;43.75;22.38;;;;;;;;;;5039696;28;20049;-72
2021/12/23 03:37:54;;;;;;;48.55;24.48;;;;;;;;;;5046679;28;20037;-72
2021/12/23 03:40:20;;;;;;;47.63;23.10;;;;;;;;;;5034995;28;20456;-73
2021/12/23 03:42:46;;;;;;;46.10;23.52;;;;;;;;;;5045475;28;20067;-72
2021/12/23 03:45:12;;;;;;;41.60;22.58;;;;;;;;;;5036791;28;20059;-72
2021/12/23 03:47:39;;;;;;;44.40;22.05;;;;;;;;;;5037878;28;20025;-72
2021/12/23 03:50:05;;;;;;;45.03;22.52;;;;;;;;;;5047321;28;20055;-72
2021/12/23 03:52:32;;;;;;;46.42;23.20;;;;;;;;;;5017785;28;20025;-73
2021/12/23 03:54:58;;;;;;;42.72;22.30;;;;;;;;;;5039561;28;20032;-73
2021/12/23 03:57:24;;;;;;;47.15;23.98;;;;;;;;;;5040867;28;20079;-72
2021/12/23 03:59:49;;;;;;;46.88;24.33;;;;;;;;;;5046177;28;20029;-71
2021/12/23 04:02:16;;;;;;;48.78;22.58;;;;;;;;;;5034796;28;20037;-71
2021/12/23 04:04:42;;;;;;;42.58;22.17;;;;;;;;;;5046379;28;20144;-72
2021/12/23 04:07:08;;;;;;;47.47;23.50;;;;;;;;;;5039808;28;20064;-72
2021/12/23 04:09:34;;;;;;;45.28;24.08;;;;;;;;;;5038871;28;20179;-71
2021/12/23 04:12:00;;;;;;;43.00;22.27;;;;;;;;;;5047571;28;20039;-72
2021/12/23 04:14:26;;;;;;;46.50;23.30;;;;;;;;;;5034119;28;20037;-72
2021/12/23 04:16:52;;;;;;;44.75;23.58;;;;;;;;;;5044803;28;20033;-72
2021/12/23 04:19:18;;;;;;;46.90;24.42;;;;;;;;;;5039181;28;20029;-70
2021/12/23 04:21:44;;;;;;;48.40;23.63;;;;;;;;;;5042686;28;20494;-72
2021/12/23 04:24:10;;;;;;;42.92;22.42;;;;;;;;;;5032574;28;20027;-72
2021/12/23 04:26:37;;;;;;;42.35;22.70;;;;;;;;;;5045989;28;20021;-72
2021/12/23 04:29:04;;;;;;;44.28;22.63;;;;;;;;;;5038459;28;20469;-72
2021/12/23 04:31:30;;;;;;;49.67;24.40;;;;;;;;;;5039345;28;20030;-72
2021/12/23 04:33:56;;;;;;;46.28;22.90;;;;;;;;;;5045737;28;20029;-72
2021/12/23 04:36:25;;;;;;;52.13;22.63;;;;;;;;;;5034504;28;20438;-73
2021/12/23 04:38:51;;;;;;;40.50;22.80;;;;;;;;;;5044655;28;20117;-72
2021/12/23 04:41:17;;;;;;;43.10;22.45;;;;;;;;;;5039701;28;20119;-72
2021/12/23 04:43:43;;;;;;;47.63;22.95;;;;;;;;;;5039772;28;20083;-72
2021/12/23 04:46:10;;;;;;;43.38;22.35;;;;;;;;;;5051569;28;20045;-72
2021/12/23 04:48:36;;;;;;;46.15;23.60;;;;;;;;;;5039533;28;20048;-71
2021/12/23 04:51:02;;;;;;;45.42;23.17;;;;;;;;;;5048314;28;20041;-71
2021/12/23 04:53:28;;;;;;;45.00;21.65;;;;;;;;;;5045843;28;20064;-71
2021/12/23 04:55:54;;;;;;;52.65;24.98;;;;;;;;;;5038923;28;20025;-72
2021/12/23 04:58:20;;;;;;;50.55;25.52;;;;;;;;;;5051530;28;20605;-72
2021/12/23 05:00:48;;;;;;;48.05;22.63;;;;;;;;;;5040315;28;20051;-71
2021/12/23 05:03:18;;;;;;;40.80;21.60;;;;;;;;;;5044606;28;20033;-72
2021/12/23 05:05:44;;;;;;;44.67;22.83;;;;;;;;;;5048377;28;20021;-72
2021/12/23 05:08:11;;;;;;;52.17;25.35;;;;;;;;;;5038007;28;20028;-72
2021/12/23 05:10:37;;;;;;;44.65;22.63;;;;;;;;;;5048981;28;20025;-71
2021/12/23 05:13:03;;;;;;;44.20;23.70;;;;;;;;;;5041749;28;20033;-72
2021/12/23 05:15:30;;;;;;;42.83;21.55;;;;;;;;;;5041669;28;20049;-72
2021/12/23 05:17:56;;;;;;;53.25;25.60;;;;;;;;;;5049723;28;20504;-72
2021/12/23 05:20:23;;;;;;;44.33;22.45;;;;;;;;;;5037822;28;20101;-72
2021/12/23 05:22:49;;;;;;;46.38;22.65;;;;;;;;;;5047853;28;20108;-72
2021/12/23 05:25:16;;;;;;;47.67;22.63;;;;;;;;;;5042829;28;20083;-72
2021/12/23 05:27:42;;;;;;;43.88;23.08;;;;;;;;;;5041018;28;20126;-71
2021/12/23 05:30:10;;;;;;;44.88;21.63;;;;;;;;;;5051515;28;20491;-72
2021/12/23 05:32:36;;;;;;;41.28;22.60;;;;;;;;;;5038396;28;20029;-72
2021/12/23 05:35:03;;;;;;;45.45;22.35;;;;;;;;;;5044181;28;20045;-72
2021/12/23 05:37:29;;;;;;;52.13;24.58;;;;;;;;;;5045495;28;20040;-72
2021/12/23 05:39:55;;;;;;;48.95;23.13;;;;;;;;;;5039036;28;20033;-71
2021/12/23 05:42:21;;;;;;;41.72;22.23;;;;;;;;;;5050227;28;20494;-73
2021/12/23 05:44:47;;;;;;;43.53;21.98;;;;;;;;;;5039055;28;20024;-72
2021/12/23 05:47:13;;;;;;;46.17;22.23;;;;;;;;;;5045030;28;20033;-72
2021/12/23 05:49:39;;;;;;;45.00;22.98;;;;;;;;;;5047195;28;20610;-72
2021/12/23 05:52:05;;;;;;;42.10;21.45;;;;;;;;;;5037484;28;20061;-73
2021/12/23 05:54:31;;;;;;;43.42;22.85;;;;;;;;;;5048322;28;20026;-72
2021/12/23 05:57:01;;;;;;;45.25;22.98;;;;;;;;;;5040834;28;20478;-71
2021/12/23 05:59:28;;;;;;;43.20;22.85;;;;;;;;;;5042684;28;20045;-72
2021/12/23 06:01:54;;;;;;;44.35;22.98;;;;;;;;;;5047415;28;20037;-72
2021/12/23 06:04:19;;;;;;;41.50;21.95;;;;;;;;;;5038258;28;20498;-72
2021/12/23 06:06:45;;;;;;;39.88;21.73;;;;;;;;;;5049059;28;20036;-72
2021/12/23 06:09:11;;;;;;;48.42;24.08;;;;;;;;;;5046683;28;20075;-72
2021/12/23 06:11:37;;;;;;;46.92;23.45;;;;;;;;;;5049607;28;20034;-71
2021/12/23 06:14:03;;;;;;;43.97;22.02;;;;;;;;;;5056889;28;20029;-72
2021/12/23 06:16:29;;;;;;;43.08;22.08;;;;;;;;;;5038168;28;20021;-72
2021/12/23 06:18:55;;;;;;;41.33;21.55;;;;;;;;;;5046306;28;20030;-72
2021/12/23 06:21:22;;;;;;;43.08;23.45;;;;;;;;;;5043601;28;20040;-71
2021/12/23 06:23:48;;;;;;;44.58;21.73;;;;;;;;;;5038424;28;20398;-73
2021/12/23 06:26:14;;;;;;;42.50;21.73;;;;;;;;;;5049571;28;20025;-72
2021/12/23 06:28:40;;;;;;;41.60;22.23;;;;;;;;;;5038048;28;20040;-72
2021/12/23 06:31:07;;;;;;;47.75;23.33;;;;;;;;;;5044672;28;20029;-72
2021/12/23 06:33:33;;;;;;;47.35;23.08;;;;;;;;;;5044351;28;20036;-72
2021/12/23 06:35:59;;;;;;;42.05;21.08;;;;;;;;;;5037838;28;20033;-72
2021/12/23 06:38:25;;;;;;;42.67;22.75;;;;;;;;;;5049705;28;20077;-72
2021/12/23 06:40:51;;;;;;;43.38;21.35;;;;;;;;;;5037786;28;20029;-71
2021/12/23 06:43:17;;;;;;;45.65;21.20;;;;;;;;;;5041675;28;20395;-71
2021/12/23 06:45:43;;;;;;;43.53;22.73;;;;;;;;;;5045968;28;20025;-71
2021/12/23 06:48:09;;;;;;;41.60;20.98;;;;;;;;;;5034230;28;20155;-71
2021/12/23 06:50:35;;;;;;;48.78;23.05;;;;;;;;;;5047431;28;20029;-71
2021/12/23 06:53:01;;;;;;;46.17;21.95;;;;;;;;;;5037867;28;20021;-70
2021/12/23 06:55:27;;;;;;;45.67;22.27;;;;;;;;;;5038110;28;20160;-72
2021/12/23 06:57:56;;;;;;;47.90;22.67;;;;;;;;;;5044219;28;20036;-72
2021/12/23 07:00:23;;;;;;;43.30;23.30;;;;;;;;;;5033026;28;20079;-72
2021/12/23 07:02:49;;;;;;;39.90;21.15;;;;;;;;;;5044989;28;20040;-72
2021/12/23 07:05:16;;;;;;;46.92;22.30;;;;;;;;;;5042201;28;20056;-73
2021/12/23 07:10:18;;;;;;;45.17;22.75;;;;;;;;;;5049003;28;20039;-72
2021/12/23 07:12:44;;;;;;;44.25;21.73;;;;;;;;;;5037253;28;20435;-72
2021/12/23 07:15:10;;;;;;;45.08;23.30;;;;;;;;;;5042923;28;20031;-72
2021/12/23 07:17:37;;;;;;;48.45;23.73;;;;;;;;;;5044777;28;20471;-72
2021/12/23 07:20:04;;;;;;;45.65;22.92;;;;;;;;;;5035814;28;20070;-69
2021/12/23 07:22:29;;;;;;;45.15;22.55;;;;;;;;;;5041940;28;20502;-68
2021/12/23 07:24:55;;;;;;;45.08;22.85;;;;;;;;;;5038408;28;20026;-68
2021/12/23 07:27:22;;;;;;;42.92;21.73;;;;;;;;;;5040071;28;20049;-68
2021/12/23 07:29:48;;;;;;;46.22;22.83;;;;;;;;;;5046102;28;20049;-69
2021/12/23 07:32:14;;;;;;;46.08;23.30;;;;;;;;;;5035359;28;20083;-68
2021/12/23 07:34:42;;;;;;;43.28;22.23;;;;;;;;;;5038996;28;20040;-67
2021/12/23 07:37:08;;;;;;;43.38;22.42;;;;;;;;;;5031942;28;20034;-68
2021/12/23 07:39:35;;;;;;;43.67;22.13;;;;;;;;;;5033536;28;20033;-70
2021/12/23 07:42:01;;;;;;;44.53;23.70;;;;;;;;;;5031088;28;20069;-69
2021/12/23 07:44:27;;;;;;;43.67;21.80;;;;;;;;;;5047778;28;20372;-70
2021/12/23 07:46:53;;;;;;;42.17;22.02;;;;;;;;;;5038049;28;20104;-69
2021/12/23 07:49:19;;;;;;;40.67;20.65;;;;;;;;;;5040061;28;20029;-69
2021/12/23 07:51:45;;;;;;;44.38;22.75;;;;;;;;;;5044286;28;20529;-68
2021/12/23 07:54:12;;;;;;;40.67;21.15;;;;;;;;;;5033107;28;20039;-70
2021/12/23 07:56:38;;;;;;;44.65;22.30;;;;;;;;;;5044967;28;20542;-69
2021/12/23 07:59:04;;;;;;;38.65;19.92;;;;;;;;;;5038394;28;20057;-73
2021/12/23 08:01:30;;;;;;;45.83;22.80;;;;;;;;;;5038903;28;20071;-73
2021/12/23 08:03:56;;;;;;;44.85;23.38;;;;;;;;;;5045694;28;20474;-72
2021/12/23 08:06:22;;;;;;;40.72;21.17;;;;;;;;;;5035046;28;20167;-73
2021/12/23 08:08:48;;;;;;;45.85;22.83;;;;;;;;;;5046830;28;20026;-71
2021/12/23 08:11:14;;;;;;;39.13;20.52;;;;;;;;;;5041801;28;20033;-72
2021/12/23 08:13:40;;;;;;;43.08;20.85;;;;;;;;;;5037135;28;20036;-71
2021/12/23 08:16:06;;;;;;;40.38;21.02;;;;;;;;;;5047443;28;20074;-72
2021/12/23 08:18:32;;;;;;;44.67;21.83;;;;;;;;;;5033997;28;20028;-69
2021/12/23 08:20:59;;;;;;;43.22;21.52;;;;;;;;;;5038434;28;20047;-69
2021/12/23 08:23:26;;;;;;;44.88;22.63;;;;;;;;;;5034673;28;20399;-69
2021/12/23 08:25:53;;;;;;;45.75;22.15;;;;;;;;;;5025458;28;20041;-70
2021/12/23 08:28:19;;;;;;;39.30;21.15;;;;;;;;;;5045912;28;20510;-75
2021/12/23 08:30:45;;;;;;;43.42;22.00;;;;;;;;;;5036802;28;20025;-75
2021/12/23 08:33:12;;;;;;;40.70;21.08;;;;;;;;;;5028645;28;20026;-74
2021/12/23 08:35:38;;;;;;;40.95;20.33;;;;;;;;;;5036849;28;20380;-75
2021/12/23 08:38:05;;;;;;;43.33;21.05;;;;;;;;;;5030010;28;20021;-74
2021/12/23 08:40:32;;;;;;;41.03;22.83;;;;;;;;;;5037093;28;20060;-74
2021/12/23 08:42:59;;;;;;;39.92;19.05;;;;;;;;;;5042789;28;20456;-74
2021/12/23 08:45:26;;;;;;;42.78;21.23;;;;;;;;;;5042382;28;20029;-72
2021/12/23 08:47:54;;;;;;;40.13;21.27;;;;;;;;;;5035320;28;20543;-74
2021/12/23 08:50:21;;;;;;;41.67;21.55;;;;;;;;;;5045946;28;20025;-74
2021/12/23 08:52:48;;;;;;;40.55;20.75;;;;;;;;;;5033874;28;20031;-72
2021/12/23 08:55:15;;;;;;;40.47;21.25;;;;;;;;;;5037179;28;20702;-71
2021/12/23 08:57:41;;;;;;;40.15;21.25;;;;;;;;;;5039452;28;20120;-71
2021/12/23 09:00:09;;;;;;;41.78;21.33;;;;;;;;;;5034191;28;20021;-70
2021/12/23 09:02:35;;;;;;;45.20;22.23;;;;;;;;;;5046666;28;20115;-71
2021/12/23 09:05:01;;;;;;;39.92;20.23;;;;;;;;;;5036460;28;20025;-70
2021/12/23 09:07:29;;;;;;;41.22;21.67;;;;;;;;;;5039543;28;20724;-71
2021/12/23 09:09:55;;;;;;;42.15;20.80;;;;;;;;;;5045870;28;20021;-71
2021/12/23 09:12:21;;;;;;;46.03;21.98;;;;;;;;;;5033060;28;20464;-71
2021/12/23 09:14:47;;;;;;;43.65;21.05;;;;;;;;;;5044104;28;20057;-72
2021/12/23 09:17:13;;;;;;;38.63;20.40;;;;;;;;;;5040063;28;20386;-71
2021/12/23 09:19:39;;;;;;;42.67;21.40;;;;;;;;;;5033024;28;20470;-71
2021/12/23 09:22:05;;;;;;;39.75;20.20;;;;;;;;;;5046517;28;20086;-72
2021/12/23 09:24:32;;;;;;;37.90;19.55;;;;;;;;;;5017332;28;20437;-72
2021/12/23 09:27:15;;;;;;;37.10;19.75;;;;;;;;;;5043223;28;20064;-72
2021/12/23 09:34:55;;;;;;;36.53;20.15;;;;;;;;;;5052433;28;20115;-72
2021/12/23 09:37:22;;;;;;;39.63;21.38;;;;;;;;;;5043766;28;20025;-71
2021/12/23 09:39:53;;;;;;;40.47;19.73;;;;;;;;;;5048541;28;20040;-76
2021/12/23 09:42:38;;;;;;;45.15;22.15;;;;;;;;;;5038972;28;20038;-72
2021/12/23 09:45:06;;;;;;;44.67;22.33;;;;;;;;;;5045838;28;20021;-73
2021/12/23 09:47:34;;;;;;;40.22;20.73;;;;;;;;;;5046118;28;20021;-73
2021/12/23 09:50:06;;;;;;;40.30;21.80;;;;;;;;;;5038432;28;20017;-73
2021/12/23 09:52:33;;;;;;;46.83;21.85;;;;;;;;;;5021585;28;20032;-73
2021/12/23 09:55:04;;;;;;;40.47;21.17;;;;;;;;;;5045672;28;20029;-76
2021/12/23 09:57:30;;;;;;;43.42;21.08;;;;;;;;;;5045543;28;20056;-76
2021/12/23 09:59:56;;;;;;;47.33;22.08;;;;;;;;;;5051450;28;20044;-76
2021/12/23 10:02:24;;;;;;;39.20;20.42;;;;;;;;;;5036645;28;20038;-77
2021/12/23 10:04:50;;;;;;;40.78;19.90;;;;;;;;;;5039213;28;20032;-74
2021/12/23 10:07:17;;;;;;;42.85;20.52;;;;;;;;;;5041985;28;20025;-75
2021/12/23 10:31:45;;;;;;;38.95;20.77;;;;;;;;;;5041195;28;20033;-72
2021/12/23 10:37:17;;;;;;;44.05;21.42;;;;;;;;;;5040397;28;20501;-72
2021/12/23 10:39:45;;;;;;;41.78;20.23;;;;;;;;;;5038504;28;20056;-73
2021/12/23 10:42:21;;;;;;;39.97;19.27;;;;;;;;;;5049432;28;20043;-72
2021/12/23 10:44:57;;;;;;;40.03;19.40;;;;;;;;;;5038227;28;20021;-72
2021/12/23 10:47:37;;;;;;;40.75;20.27;;;;;;;;;;5041974;28;20029;-70
2021/12/23 10:50:15;;;;;;;38.95;18.63;;;;;;;;;;5061917;22;20041;-68
2021/12/23 10:53:13;;;;;;;38.50;18.50;;;;;;;;;;5022385;28;20483;-68
2021/12/23 10:58:24;;;;;;;37.95;20.63;;;;;;;;;;5049294;28;20427;-67
2021/12/23 11:00:52;;;;;;;37.33;19.60;;;;;;;;;;5038579;28;20517;-68
2021/12/23 11:03:42;;;;;;;41.95;20.65;;;;;;;;;;5040331;28;20032;-68
2021/12/23 11:06:25;;;;;;;43.60;20.38;;;;;;;;;;5049603;28;20028;-68
2021/12/23 11:09:13;;;;;;;43.40;20.88;;;;;;;;;;5038744;28;20467;-67
2021/12/23 11:12:17;;;;;;;;;;;;;;;;;;;;;
2021/12/23 11:36:31;;;;;;;39.47;20.10;;;;;;;;;;5035610;28;20029;-69
2021/12/23 11:43:53;;;;;;;42.03;19.02;;;;;;;;;;5036952;28;20399;-68
2021/12/23 11:46:19;;;;;;;47.30;20.38;;;;;;;;;;5047159;28;20021;-73
2021/12/23 11:48:47;;;;;;;40.10;21.45;;;;;;;;;;5032370;28;20100;-74
2021/12/23 11:51:21;;;;;;;38.38;19.10;;;;;;;;;;5040463;28;20045;-74
2021/12/23 11:53:49;;;;;;;46.92;20.58;;;;;;;;;;5050227;28;20040;-72
2021/12/23 11:56:15;;;;;;;47.88;22.77;;;;;;;;;;5035283;28;20031;-77
2021/12/23 11:58:44;;;;;;;44.10;20.95;;;;;;;;;;5046665;28;20030;-71
2021/12/23 12:01:12;;;;;;;39.75;20.90;;;;;;;;;;5039630;28;20082;-71
2021/12/23 12:03:39;;;;;;;40.70;20.23;;;;;;;;;;5038540;28;20096;-73
2021/12/23 12:06:15;;;;;;;45.22;20.98;;;;;;;;;;5046827;28;20498;-73
2021/12/23 12:08:41;;;;;;;41.45;20.85;;;;;;;;;;5021305;28;20025;-68
2021/12/23 12:11:18;;;;;;;40.72;20.58;;;;;;;;;;5042921;28;20039;-68
2021/12/23 12:13:44;;;;;;;46.95;20.67;;;;;;;;;;5044222;28;20108;-68
2021/12/23 12:16:32;;;;;;;44.47;22.73;;;;;;;;;;5034400;28;20395;-67
2021/12/23 12:18:58;;;;;;;43.47;21.02;;;;;;;;;;5042724;28;20029;-68
2021/12/23 12:21:27;;;;;;;41.97;19.70;;;;;;;;;;5040690;28;20029;-68
2021/12/23 12:24:11;;;;;;;42.63;20.17;;;;;;;;;;5035745;28;20025;-68
2021/12/23 12:26:50;;;;;;;40.90;20.42;;;;;;;;;;5020653;28;20387;-68
2021/12/23 12:29:19;;;;;;;45.13;21.67;;;;;;;;;;5041053;28;20496;-66
2021/12/23 12:31:45;;;;;;;41.42;21.08;;;;;;;;;;5040091;28;20036;-67
2021/12/23 12:34:12;;;;;;;42.50;21.65;;;;;;;;;;5046659;28;20032;-69
2021/12/23 12:36:49;;;;;;;43.75;21.98;;;;;;;;;;5034418;28;20032;-69
2021/12/23 12:39:23;;;;;;;49.10;21.40;;;;;;;;;;5041172;28;20075;-69
2021/12/23 12:41:50;;;;;;;39.72;21.73;;;;;;;;;;5045277;28;20479;-68
2021/12/23 12:44:28;;;;;;;45.00;21.85;;;;;;;;;;5033493;28;20025;-68
2021/12/23 12:47:07;;;;;;;;;;;;;;;;;;;;;
2021/12/23 12:49:38;;;;;;;44.22;21.92;;;;;;;;;;5042131;28;20059;-69
2021/12/23 12:52:30;;;;;;;50.20;24.10;;;;;;;;;;5034944;28;20041;-69
2021/12/23 12:55:03;;;;;;;55.92;25.13;;;;;;;;;;5021347;28;20044;-68
2021/12/23 12:57:31;;;;;;;50.95;24.38;;;;;;;;;;5039291;28;20462;-68
2021/12/23 13:00:00;;;;;;;47.13;22.63;;;;;;;;;;5044834;28;20383;-68
2021/12/23 13:02:28;;;;;;;48.90;24.35;;;;;;;;;;5034392;28;20485;-68
2021/12/23 13:04:57;;;;;;;52.17;25.17;;;;;;;;;;5047482;28;20437;-68
2021/12/23 13:07:23;;;;;;;51.72;25.95;;;;;;;;;;5045168;28;20393;-69
2021/12/23 13:09:52;;;;;;;51.58;25.40;;;;;;;;;;5040148;28;20025;-70
2021/12/23 13:12:44;;;;;;;51.42;23.98;;;;;;;;;;5051149;28;20036;-68
2021/12/23 13:15:16;;;;;;;52.22;25.10;;;;;;;;;;5038982;28;20538;-68
2021/12/23 13:17:52;;;;;;;45.50;24.92;;;;;;;;;;5041153;28;20025;-70
2021/12/23 13:20:18;;;;;;;55.28;26.27;;;;;;;;;;5051306;28;20032;-69
2021/12/23 13:22:45;;;;;;;51.30;25.98;;;;;;;;;;5039438;28;20032;-69
2021/12/23 13:25:12;;;;;;;50.33;24.95;;;;;;;;;;5044987;28;20021;-68
2021/12/23 13:27:39;;;;;;;46.30;24.23;;;;;;;;;;5046962;28;20135;-69
2021/12/23 13:30:07;;;;;;;47.15;24.38;;;;;;;;;;5037907;28;20030;-69
2021/12/23 13:32:33;;;;;;;51.55;25.40;;;;;;;;;;5029237;28;20032;-69
2021/12/23 13:35:13;;;;;;;49.20;24.45;;;;;;;;;;5046185;28;20037;-69
2021/12/23 13:37:43;;;;;;;46.10;25.33;;;;;;;;;;5047043;28;20037;-69
2021/12/23 13:40:09;;;;;;;45.70;22.58;;;;;;;;;;5037384;28;20026;-69
2021/12/23 13:42:39;;;;;;;42.92;22.02;;;;;;;;;;5049624;28;20032;-69
2021/12/23 13:45:05;;;;;;;50.50;25.38;;;;;;;;;;5041510;28;20025;-68
2021/12/23 13:47:33;;;;;;;45.90;22.73;;;;;;;;;;5042011;28;20057;-69
2021/12/23 13:49:59;;;;;;;48.05;23.92;;;;;;;;;;5049445;28;20075;-68
2021/12/23 13:52:25;;;;;;;43.58;22.27;;;;;;;;;;5037043;28;20521;-68
2021/12/23 13:54:58;;;;;;;40.47;21.10;;;;;;;;;;5046526;28;20029;-68
2021/12/23 13:57:26;;;;;;;50.38;22.42;;;;;;;;;;5042917;28;20056;-68
2021/12/23 13:59:52;;;;;;;40.60;21.20;;;;;;;;;;5038754;28;20033;-68
2021/12/23 14:02:19;;;;;;;41.22;21.85;;;;;;;;;;5050158;28;20025;-68
2021/12/23 14:04:47;;;;;;;47.65;22.02;;;;;;;;;;5038430;28;20494;-68
2021/12/23 14:07:13;;;;;;;41.60;21.52;;;;;;;;;;5042717;28;20395;-68
2021/12/23 14:09:41;;;;;;;40.70;21.67;;;;;;;;;;5045164;28;20027;-68
2021/12/23 14:12:08;;;;;;;44.95;22.48;;;;;;;;;;5035277;28;20060;-68
2021/12/23 14:14:34;;;;;;;39.55;21.30;;;;;;;;;;5045265;28;20032;-68
2021/12/23 14:17:00;;;;;;;45.22;21.23;;;;;;;;;;5039569;28;20108;-68
2021/12/23 14:19:47;;;;;;;42.80;21.48;;;;;;;;;;5040432;28;20029;-68
2021/12/23 14:25:03;;;;;;;39.47;19.92;;;;;;;;;;5019665;28;20541;-69
2021/12/23 14:27:29;;;;;;;41.35;20.63;;;;;;;;;;5040235;28;20037;-68
2021/12/23 14:30:02;;;;;;;41.08;20.38;;;;;;;;;;5047097;28;20021;-68
2021/12/23 14:32:28;;;;;;;39.85;20.38;;;;;;;;;;5035261;28;20082;-67
2021/12/23 14:34:54;;;;;;;42.35;21.13;;;;;;;;;;5043936;28;20418;-68
2021/12/23 14:37:20;;;;;;;42.97;21.23;;;;;;;;;;5041873;28;20029;-67
2021/12/23 14:39:46;;;;;;;42.35;20.83;;;;;;;;;;5037898;28;20099;-68
2021/12/23 14:42:14;;;;;;;38.97;20.17;;;;;;;;;;5048049;28;20112;-67
2021/12/23 14:44:40;;;;;;;39.92;21.83;;;;;;;;;;5035575;28;20078;-68
2021/12/23 14:47:25;;;;;;;41.75;20.48;;;;;;;;;;5042881;28;20471;-68
2021/12/23 14:52:23;;;;;;;38.63;20.98;;;;;;;;;;5034743;28;20030;-67
2021/12/23 14:55:07;;;;;;;40.67;21.60;;;;;;;;;;5043201;28;20021;-66
2021/12/23 14:57:38;;;;;;;43.60;21.65;;;;;;;;;;5043593;28;20148;-68
2021/12/23 15:00:07;;;;;;;40.10;19.70;;;;;;;;;;5034316;28;20461;-67
2021/12/23 15:02:33;;;;;;;39.45;20.85;;;;;;;;;;5017551;28;20024;-68
2021/12/23 15:05:00;;;;;;;42.60;21.23;;;;;;;;;;5042137;28;20483;-67
2021/12/23 15:07:26;;;;;;;45.60;22.15;;;;;;;;;;5042365;28;20037;-68
2021/12/23 15:09:59;;;;;;;48.83;24.00;;;;;;;;;;5034941;28;20083;-68
2021/12/23 15:12:25;;;;;;;44.38;21.08;;;;;;;;;;5046233;28;20055;-68
2021/12/23 15:14:53;;;;;;;45.67;23.10;;;;;;;;;;5025737;28;20048;-67
2021/12/23 15:17:25;;;;;;;43.08;22.23;;;;;;;;;;5031699;28;20033;-68
2021/12/23 15:19:54;;;;;;;50.00;23.48;;;;;;;;;;5036284;28;20029;-67
2021/12/23 15:22:21;;;;;;;49.10;23.23;;;;;;;;;;5047457;28;20052;-67
2021/12/23 15:24:58;;;;;;;44.28;22.02;;;;;;;;;;5036168;28;20025;-68
2021/12/23 15:27:26;;;;;;;45.83;23.30;;;;;;;;;;5038465;28;20119;-69
2021/12/23 15:29:54;;;;;;;47.55;23.20;;;;;;;;;;5045655;28;20029;-69
2021/12/23 15:32:25;;;;;;;43.13;23.08;;;;;;;;;;5034068;28;20124;-69
2021/12/23 15:35:00;;;;;;;;;;;;;;;;;;5044062;28;20044;-69
2021/12/23 15:37:26;;;;;;;51.97;23.33;;;;;;;;;;5041782;28;19991;-69